Latest Weather Observations for Sunshine Coast Airport

IDQ60901

Issued at 8:11 am EST Tuesday 27 September 2022 (issued every 10 minutes, with the page automatically refreshed every 10 minutes)

About weather observations | Map of Brisbane area stations | Latest observations for Brisbane area | Other Formats
Station Details ID: 040861 Name: SUNSHINE COAST AIRPORT Lat: -26.60 Lon: 153.09 Height: 3.42 m
Data from the previous 72 hours. | See also: Recent months at Sunshine Coast Airport
Date/Time
EST
Temp
°C
App
Temp
°C
Dew
Point
°C
Rel
Hum
%
Delta-T
°C
Wind Press
QNH
hPa
Press
MSL
hPa
Rain since
9am
mm
Dir  Spd
km/h
Gust
km/h
Spd
kts
Gust
kts
27/08:00am 20.0 19.5 14.8 72 3.0 NW 11 15 6 8 1016.6 1016.5 0.0
27/07:30am 19.0 18.4 14.7 76 2.5 NNW 11 13 6 7 1016.2 1016.1 0.0
27/07:00am 17.9 17.8 15.0 83 1.7 NW 9 11 5 6 1016.2 1016.1 0.0
27/06:30am 17.3 17.2 14.9 86 1.4 NW 9 13 5 7 1015.8 1015.7 0.0
27/06:00am 16.6 16.9 15.0 90 0.9 WNW 7 9 4 5 1015.3 1015.2 0.0
27/05:30am 16.0 15.6 14.0 88 1.1 WNW 9 11 5 6 1015.2 1015.1 0.0
27/05:00am 15.7 15.3 14.1 90 0.9 NW 9 11 5 6 1015.0 1014.9 0.0
27/04:30am 16.0 15.3 14.2 89 1.0 WNW 11 13 6 7 1014.8 1014.8 0.0
27/04:00am 16.1 14.9 13.9 87 1.2 WNW 13 13 7 7 1014.2 1014.2 0.0
27/03:30am 15.9 15.1 14.1 89 1.0 NW 11 15 6 8 1013.7 1013.7 0.0
27/03:00am 15.8 15.0 14.0 89 1.0 WNW 11 13 6 7 1014.2 1014.2 0.0
27/02:30am 15.4 14.5 13.8 90 0.9 NW 11 13 6 7 1014.4 1014.4 0.0
27/02:00am 15.9 14.7 14.1 89 1.0 NW 13 15 7 8 1014.5 1014.5 0.0
27/01:30am 15.9 15.1 13.9 88 1.1 NW 11 13 6 7 1014.4 1014.4 0.0
27/01:00am 16.1 15.8 14.3 89 1.0 NW 9 11 5 6 1014.6 1014.6 0.0
27/12:30am 16.2 15.8 14.2 88 1.1 NNW 9 13 5 7 1015.1 1015.0 0.0
27/12:00am 16.8 15.7 14.4 86 1.4 NW 13 15 7 8 1015.6 1015.5 0.0
 
Date/Time
EST
Temp
°C
App
Temp
°C
Dew
Point
°C
Rel
Hum
%
Delta-T
°C
Wind Press
QNH
hPa
Press
MSL
hPa
Rain since
9am
mm
Dir  Spd
km/h
Gust
km/h
Spd
kts
Gust
kts
26/11:30pm 16.6 16.4 14.6 88 1.1 NW 9 11 5 6 1015.7 1015.6 0.0
26/11:00pm 17.0 16.4 14.5 85 1.4 NW 11 13 6 7 1015.8 1015.7 0.0
26/10:30pm 18.0 17.7 14.3 79 2.1 NNW 9 13 5 7 1015.8 1015.7 0.0
26/10:00pm 18.5 19.1 15.7 84 1.7 NW 7 9 4 5 1015.9 1015.8 0.0
26/09:30pm 18.5 19.0 15.6 83 1.7 NW 7 9 4 5 1016.0 1015.9 0.0
26/09:00pm 18.9 18.7 14.8 77 2.4 NNW 9 13 5 7 1016.0 1015.9 0.0
26/08:30pm 19.5 18.5 14.5 73 2.9 NNW 13 17 7 9 1016.1 1016.0 0.0
26/08:00pm 19.7 18.9 15.1 75 2.7 N 13 20 7 11 1015.5 1015.4 0.0
26/07:30pm 19.9 19.4 16.0 78 2.3 N 13 20 7 11 1015.3 1015.2 0.0
26/07:00pm 20.6 19.4 16.2 76 2.6 N 17 24 9 13 1015.0 1014.9 0.0
26/06:30pm 20.7 18.9 16.9 79 2.3 NNE 22 28 12 15 1014.3 1014.3 0.0
26/06:00pm 20.8 19.5 17.2 80 2.2 NNE 20 30 11 16 1014.1 1014.1 0.0
26/05:30pm 21.2 19.3 16.8 76 2.7 NNE 22 30 12 16 1013.9 1013.9 0.0
26/05:00pm 21.7 20.0 17.3 76 2.7 NNE 22 28 12 15 1013.7 1013.7 0.0
26/04:30pm 22.0 19.3 16.5 71 3.3 NNE 26 35 14 19 1013.3 1013.3 0.0
26/04:00pm 21.9 18.7 16.4 71 3.3 NNE 28 33 15 18 1013.2 1013.2 0.0
26/03:30pm 23.4 20.4 16.7 66 4.1 NNE 28 35 15 19 1012.9 1012.9 0.0
26/03:00pm 23.9 21.4 17.2 66 4.1 NNE 26 33 14 18 1013.1 1013.1 0.0
26/02:30pm 23.8 21.3 18.0 70 3.6 NE 28 32 15 17 1013.3 1013.3 0.0
26/02:00pm 23.5 21.3 17.9 71 3.5 NE 26 32 14 17 1013.7 1013.7 0.0
26/01:30pm 24.2 22.0 17.9 68 3.9 NE 26 30 14 16 1014.3 1014.3 0.0
26/01:00pm 23.9 22.1 17.9 69 3.8 NE 24 32 13 17 1014.6 1014.6 0.0
26/12:30pm 24.0 22.3 18.0 69 3.8 NE 24 30 13 16 1015.1 1015.0 0.0
26/12:00pm 24.3 22.9 18.0 68 3.9 NE 22 26 12 14 1015.5 1015.4 0.0
26/11:30am 24.1 22.8 18.1 69 3.8 NE 22 26 12 14 1016.1 1016.0 0.0
26/11:00am 23.0 21.0 16.5 67 4.0 NE 22 26 12 14 1016.7 1016.6 0.0
26/10:30am 24.0 22.8 17.0 65 4.3 NE 19 24 10 13 1016.9 1016.8 0.0
26/10:00am 23.8 23.3 16.8 65 4.3 NE 15 19 8 10 1017.2 1017.1 0.0
26/09:30am 22.9 22.4 16.9 69 3.7 ENE 15 19 8 10 1017.7 1017.6 0.0
26/09:00am 22.8 23.3 16.6 68 3.8 NNW 9 15 5 8 1017.6 1017.5 0.0
26/08:30am 21.7 22.2 16.6 73 3.1 WNW 9 11 5 6 1017.5 1017.4 0.0
26/08:00am 19.6 21.1 17.6 88 1.2 W 6 7 3 4 1017.7 1017.6 0.0
26/07:30am 17.6 18.7 17.0 96 0.4 W 7 9 4 5 1017.7 1017.6 0.0
26/07:00am 16.4 17.2 15.9 97 0.3 W 6 9 3 5 1017.5 1017.4 0.0
26/06:30am 15.1 15.4 14.6 97 0.3 W 6 9 3 5 1017.2 1017.1 0.0
26/06:01am 13.7 13.6 13.2 97 0.3 WNW 6 9 3 5 1016.9 1016.8 0.0
26/06:00am 13.7 13.6 13.2 97 0.3 WNW 6 9 3 5 1016.8 1016.7 0.0
26/05:30am 13.0 12.0 12.4 96 0.3 NW 9 11 5 6 1016.7 1016.6 0.0
26/05:17am 13.2 12.7 12.6 96 0.3 NW 7 11 4 6 1016.7 1016.6 0.0
26/05:00am 13.7 13.3 13.1 96 0.3 WNW 7 11 4 6 1016.7 1016.6 0.0
26/04:43am 13.3 12.1 12.7 96 0.3 W 11 13 6 7 1016.7 1016.6 0.0
26/04:35am 13.6 12.8 13.0 96 0.3 W 9 11 5 6 1016.6 1016.5 0.0
26/04:30am 13.6 13.2 13.0 96 0.3 W 7 11 4 6 1016.5 1016.4 0.0
26/04:12am 14.3 15.5 13.7 96 0.3 CALM 0 0 0 0 1016.3 1016.2 0.0
26/04:00am 14.6 15.5 14.0 96 0.3 WSW 2 6 1 3 1016.4 1016.3 0.0
26/03:30am 15.0 15.3 14.4 96 0.3 WSW 6 7 3 4 1016.4 1016.3 0.0
26/03:00am 14.7 14.7 14.1 96 0.3 WSW 7 9 4 5 1016.5 1016.4 0.0
26/02:30am 14.1 13.9 13.5 96 0.3 WSW 7 9 4 5 1016.5 1016.4 0.0
26/02:00am 14.6 14.7 14.0 96 0.3 SW 6 7 3 4 1016.5 1016.4 0.0
26/01:30am 14.5 14.0 13.9 96 0.3 WNW 9 9 5 5 1016.4 1016.3 0.0
26/01:00am 14.9 14.6 14.3 96 0.3 WNW 9 11 5 6 1016.6 1016.5 0.0
26/12:30am 15.1 14.8 14.5 96 0.3 WNW 9 9 5 5 1016.9 1016.8 0.0
26/12:00am 14.6 14.7 13.8 95 0.4 WSW 6 7 3 4 1017.1 1017.0 0.0
 
Date/Time
EST
Temp
°C
App
Temp
°C
Dew
Point
°C
Rel
Hum
%
Delta-T
°C
Wind Press
QNH
hPa
Press
MSL
hPa
Rain since
9am
mm
Dir  Spd
km/h
Gust
km/h
Spd
kts
Gust
kts
25/11:30pm 15.3 15.6 14.5 95 0.5 WSW 6 9 3 5 1017.1 1017.0 0.0
25/11:00pm 15.6 16.0 14.8 95 0.5 W 6 7 3 4 1017.1 1017.0 0.0
25/10:30pm 15.6 16.0 14.8 95 0.5 W 6 9 3 5 1017.0 1016.9 0.0
25/10:00pm 15.1 15.1 14.3 95 0.5 W 7 9 4 5 1016.9 1016.8 0.0
25/09:30pm 15.3 15.9 14.3 94 0.6 W 4 7 2 4 1016.9 1016.8 0.0
25/09:00pm 16.0 17.6 14.9 93 0.6 CALM 0 0 0 0 1016.9 1016.8 0.0
25/08:30pm 16.1 16.4 14.6 91 0.9 WNW 6 7 3 4 1016.8 1016.7 0.0
25/08:00pm 16.7 17.2 14.9 89 1.0 WNW 6 9 3 5 1016.5 1016.4 0.0
25/07:30pm 18.0 18.0 14.1 78 2.2 NNE 7 11 4 6 1016.2 1016.1 0.0
25/07:00pm 20.1 19.5 15.7 76 2.6 E 13 19 7 10 1015.6 1015.5 0.0
25/06:30pm 20.2 19.3 15.8 76 2.6 E 15 19 8 10 1015.1 1015.0 0.0
25/06:00pm 20.4 19.8 16.6 79 2.3 E 15 19 8 10 1015.0 1014.9 0.0
25/05:30pm 20.7 20.0 16.5 77 2.5 E 15 19 8 10 1014.5 1014.5 0.0
25/05:00pm 21.3 20.7 16.7 75 2.8 E 15 20 8 11 1014.1 1014.1 0.0
25/04:30pm 21.9 20.6 16.8 73 3.1 E 19 22 10 12 1013.8 1013.8 0.0
25/04:00pm 22.4 21.4 16.7 70 3.5 E 17 22 9 12 1013.6 1013.6 0.0
25/03:30pm 22.9 21.4 16.2 66 4.1 E 19 24 10 13 1013.3 1013.3 0.0
25/03:00pm 23.2 21.5 15.8 63 4.5 E 19 24 10 13 1013.3 1013.3 0.0
25/02:30pm 23.3 21.1 14.3 57 5.3 E 19 24 10 13 1013.5 1013.5 0.0
25/02:00pm 23.6 21.1 13.5 53 5.9 ESE 19 24 10 13 1013.8 1013.8 0.0
25/01:30pm 23.6 20.8 12.6 50 6.3 ESE 19 24 10 13 1014.1 1014.1 0.0
25/01:00pm 24.0 20.9 12.3 48 6.7 ESE 20 24 11 13 1014.5 1014.5 0.0
25/12:30pm 23.9 21.0 12.8 49 6.4 ESE 20 24 11 13 1015.0 1014.9 0.0
25/12:00pm 24.4 20.8 10.7 42 7.6 ESE 20 24 11 13 1015.2 1015.1 0.0
25/11:30am 24.9 21.4 8.8 36 8.7 ESE 17 20 9 11 1015.4 1015.3 0.0
25/11:00am 25.1 21.9 6.8 31 9.5 ESE 13 19 7 10 1015.8 1015.7 0.0
25/10:30am 24.7 21.3 6.0 30 9.6 WSW 13 20 7 11 1016.0 1015.9 0.0
25/10:00am 24.0 19.9 4.4 28 9.7 SW 15 24 8 13 1016.3 1016.2 0.0
25/09:30am 23.6 18.7 5.0 30 9.3 SW 20 26 11 14 1016.2 1016.1 0.0
25/09:00am 23.1 18.3 5.5 32 8.8 SW 20 30 11 16 1016.2 1016.1 0.2
25/08:30am 22.5 18.3 8.2 40 7.5 WSW 20 30 11 16 1015.9 1015.8 0.2
25/08:00am 21.3 18.4 11.1 52 5.6 WSW 17 22 9 12 1015.9 1015.8 0.2
25/07:30am 19.6 18.2 13.5 68 3.5 W 13 17 7 9 1015.8 1015.7 0.2
25/07:00am 17.2 17.0 13.5 79 2.1 WNW 7 11 4 6 1015.6 1015.5 0.2
25/06:30am 14.9 14.1 12.9 88 1.1 W 9 11 5 6 1015.2 1015.1 0.2
25/06:00am 12.0 9.7 10.4 90 0.8 W 13 13 7 7 1015.1 1015.0 0.2
25/05:30am 12.3 11.3 10.9 91 0.7 W 7 7 4 4 1014.6 1014.6 0.2
25/05:00am 12.2 11.0 10.4 89 0.9 W 7 9 4 5 1014.4 1014.4 0.2
25/04:30am 13.7 11.9 10.7 82 1.6 WSW 11 11 6 6 1014.0 1014.0 0.2
25/04:00am 14.5 12.7 10.9 79 1.9 WSW 11 13 6 7 1013.7 1013.7 0.2
25/03:30am 15.6 13.6 11.4 76 2.3 SW 13 17 7 9 1013.5 1013.5 0.2
25/03:00am 16.3 13.6 11.7 74 2.5 WSW 17 20 9 11 1013.4 1013.4 0.2
25/02:30am 15.8 14.0 12.2 79 2.0 WSW 13 15 7 8 1013.4 1013.4 0.2
25/02:00am 15.7 13.6 12.3 80 1.9 WSW 15 19 8 10 1013.5 1013.5 0.2
25/01:30am 14.7 12.8 11.8 83 1.6 W 13 15 7 8 1013.6 1013.6 0.2
25/01:00am 14.3 12.9 12.3 88 1.1 W 11 13 6 7 1013.6 1013.6 0.2
25/12:30am 14.2 12.5 12.4 89 1.0 WNW 13 15 7 8 1013.7 1013.7 0.2
25/12:00am 14.1 12.9 12.8 92 0.7 WNW 11 11 6 6 1013.7 1013.7 0.2
 
Date/Time
EST
Temp
°C
App
Temp
°C
Dew
Point
°C
Rel
Hum
%
Delta-T
°C
Wind Press
QNH
hPa
Press
MSL
hPa
Rain since
9am
mm
Dir  Spd
km/h
Gust
km/h
Spd
kts
Gust
kts
24/11:30pm 14.7 14.5 13.6 93 0.6 W 7 9 4 5 1013.7 1013.7 0.2
24/11:00pm 15.2 15.1 13.9 92 0.7 WNW 7 9 4 5 1013.7 1013.7 0.2
24/10:30pm 15.5 14.8 14.4 93 0.6 W 11 13 6 7 1013.6 1013.6 0.2
24/10:00pm 16.0 15.9 14.9 93 0.6 W 9 13 5 7 1013.3 1013.3 0.2
24/09:30pm 16.4 16.4 15.1 92 0.8 W 9 11 5 6 1013.0 1013.0 0.2
24/09:00pm 17.2 17.8 15.9 92 0.8 W 7 9 4 5 1012.9 1012.9 0.2
24/08:30pm 17.7 18.5 16.4 92 0.8 WSW 7 9 4 5 1012.6 1012.6 0.2
24/08:00pm 17.9 18.8 16.2 90 1.0 NW 6 7 3 4 1012.3 1012.3 0.2
24/07:30pm 18.0 18.0 16.2 89 1.1 NW 11 13 6 7 1011.8 1011.8 0.2
24/07:00pm 18.9 19.0 16.5 86 1.4 N 11 13 6 7 1011.3 1011.3 0.2
24/06:30pm 19.7 20.0 16.9 84 1.7 N 11 15 6 8 1010.9 1010.9 0.2
24/06:00pm 20.1 19.5 16.7 81 2.1 NNE 15 19 8 10 1010.4 1010.4 0.2
24/05:30pm 20.8 19.7 17.2 80 2.2 NNE 19 24 10 13 1010.0 1010.0 0.2
24/05:00pm 21.4 20.2 17.4 78 2.5 NNE 20 24 11 13 1009.7 1009.7 0.2
24/04:30pm 22.2 20.7 17.6 75 2.8 NNE 22 28 12 15 1009.5 1009.5 0.2
24/04:00pm 22.7 21.2 17.6 73 3.2 NNE 22 30 12 16 1009.2 1009.2 0.2
24/03:30pm 23.0 21.6 17.9 73 3.2 NNE 22 28 12 15 1009.2 1009.2 0.2
24/03:00pm 23.7 21.6 17.2 67 4.0 NNE 24 30 13 16 1009.1 1009.1 0.2
24/02:30pm 23.7 22.2 17.7 69 3.7 NE 22 28 12 15 1009.2 1009.2 0.2
24/02:00pm 23.3 21.6 17.3 69 3.7 NE 22 26 12 14 1009.2 1009.2 0.2
24/01:30pm 24.1 22.7 17.1 65 4.3 NE 20 26 11 14 1009.6 1009.6 0.2
24/01:00pm 22.6 21.1 16.4 68 3.8 NE 19 22 10 12 1010.1 1010.1 0.2
24/12:30pm 23.6 21.9 17.3 67 3.9 NE 22 26 12 14 1010.3 1010.3 0.2
24/12:00pm 23.5 22.1 17.0 67 4.0 NE 20 26 11 14 1010.7 1010.7 0.2
24/11:30am 23.5 22.4 17.3 68 3.8 NE 19 24 10 13 1011.2 1011.2 0.2
24/11:00am 23.6 22.3 16.9 66 4.1 ENE 19 20 10 11 1011.7 1011.7 0.2
24/10:30am 23.7 22.9 16.0 62 4.7 NE 15 20 8 11 1012.0 1012.0 0.2
24/10:00am 24.6 23.2 14.4 53 6.0 WSW 15 24 8 13 1012.3 1012.3 0.2
24/09:30am 24.0 23.4 14.7 56 5.5 WSW 11 19 6 10 1012.5 1012.5 0.0
24/09:00am 23.2 22.2 14.7 58 5.0 WSW 13 20 7 11 1012.7 1012.7 0.0
24/08:30am 22.3 21.5 15.2 64 4.2 SW 13 17 7 9 1012.6 1012.6 0.0

Latest Capital City Observations: Canberra | Sydney | Melbourne | Brisbane | Adelaide | Perth | Hobart | Darwin

Other formats

Comma delimited format used in spreadsheet applications
http://www.bom.gov.au/fwo/IDQ60901/IDQ60901.94569.axf

JavaScript Object Notation format (JSON) in row-major order
http://www.bom.gov.au/fwo/IDQ60901/IDQ60901.94569.json

Data quality

Most of these data are generated automatically and are frequently updated. Quality checks on data are not normally performed. It is possible for incorrect values to appear. Refer to information at About Latest Weather Observations and please check the disclaimer before using these data.